A. Olaes, Philippines

7:37 AM PST on September 18, 2019 (GMT +0800)
EAC EFWS 2900 | | Change Station

Elev 108 ft 14.33 °N, 121.04 °E | Updated 19 seconds ago

Mostly Cloudy
Mostly Cloudy
82.6 °F
Feels Like 90 °F
N
2.5
Wind Variable Wind from SE
Gusts 3.4 mph

Today
High -- | Low -- °F
--% Chance of Precip.
Yesterday
High -- | Low -- °F
Precip. -- in
Pressure 29.77 in
Visibility 6.2 miles
Clouds Scattered Clouds 2200 ft
Mostly Cloudy 9000 ft
Heat Index 90 °F
Dew Point 76 °F
Humidity 79%
Rainfall 0.00 in
Snow Depth Not available.
5:44 AM 5:55 PM
Waning Gibbous, 87% visible
METAR RPLL 172300Z 20004KT 150V240 9999 SCT022 BKN090 27/24 Q1008 RERA NOSIG RMK A2977
Pressure 29.77 in
Visibility 6.2 miles
Clouds Scattered Clouds 2200 ft
Mostly Cloudy 9000 ft
Heat Index 90 °F
Dew Point 76 °F
Humidity 79%
Rainfall 0.00 in
Snow Depth Not available.
5:44 AM 5:55 PM
Waning Gibbous, 87% visible
METAR RPLL 172300Z 20004KT 150V240 9999 SCT022 BKN090 27/24 Q1008 RERA NOSIG RMK A2977

Get Severe Weather Alerts

Thanks for signing up!

Be on the lookout for a verification email in your inbox.

You'll start receiving the daily forecast at 6 AM.

×

10-Day Weather Forecast

No radar image for this location.
×

Almanac

Astronomy

Sep. 18, 2019 Rise Set
Actual Time
Civil Twilight
Nautical Twilight
Astronomical Twilight
Moon
Length of Visible Light
Length of Day
Tomorrow will be .
, % of the Moon is Illuminated

Today's Extremes

Country Highs Country Lows

Community

WunderPhotos

Category 6

Welcome to Category 6. This is the collective home for Weather Underground's featured writeups by Dr. Jeff Masters (right), Bob Henson (left), Chris Burt, and other regular contributors.

Nearby

Air Quality

  Air Quality AQ Index Pollutant
Not available.

Snow Depth

Station Depth Elevation

Earthquake Activity

City Distance Mag. Time & Date
Minimum magnitude displayed is 2.5.

Coastal Water Temperatures

Place Temperature

Stations

Nearby Weather Stations

Station Location Temp. Windchill Dew Point Humidity Wind Precip. Elev Updated Type